Time;durP1;ratioP1;P1;durP2;ratioP2;P2;SDS_P1;SDS_P2;PMS_P1;PMS_P2;Temp;Humidity;BMP_temperature;BMP_pressure;BME280_temperature;BME280_humidity;BME280_pressure;Samples;Min_cycle;Max_cycle;Signal;HPM_P1;HPM_P2
2024/02/14 00:01:04;;;;;;;6.93;5.28;;;8.60;99.90;;;;;;5036724;28;20112;-55
2024/02/14 00:03:30;;;;;;;6.22;4.65;;;8.70;99.90;;;;;;5034628;28;20091;-53
2024/02/14 00:05:57;;;;;;;8.27;5.18;;;8.70;99.90;;;;;;5036129;28;20266;-60
2024/02/14 00:08:23;;;;;;;8.93;5.68;;;8.70;99.90;;;;;;5048300;28;20478;-50
2024/02/14 00:10:48;;;;;;;9.85;6.20;;;8.70;99.90;;;;;;5038694;28;20025;-53
2024/02/14 00:13:14;;;;;;;9.45;6.20;;;8.70;99.90;;;;;;5032318;28;20125;-51
2024/02/14 00:15:40;;;;;;;10.20;6.35;;;8.70;99.90;;;;;;5045241;28;20477;-52
2024/02/14 00:18:06;;;;;;;10.30;5.45;;;8.80;99.90;;;;;;5051963;28;20017;-54
2024/02/14 00:20:32;;;;;;;11.57;6.03;;;8.80;99.90;;;;;;5052906;28;20040;-52
2024/02/14 00:22:58;;;;;;;12.50;6.75;;;8.80;99.90;;;;;;5053186;28;20373;-55
2024/02/14 00:25:23;;;;;;;8.88;6.40;;;8.80;99.90;;;;;;5053525;28;20035;-52
2024/02/14 00:27:49;;;;;;;8.95;6.43;;;8.80;99.90;;;;;;5038370;28;20100;-53
2024/02/14 00:30:15;;;;;;;11.23;6.82;;;8.90;99.90;;;;;;5033425;28;20029;-54
2024/02/14 00:32:41;;;;;;;8.80;5.88;;;8.90;99.90;;;;;;5037976;28;20013;-52
2024/02/14 00:35:07;;;;;;;10.75;6.90;;;8.90;99.90;;;;;;5034061;28;20044;-38
2024/02/14 00:37:34;;;;;;;11.48;6.78;;;8.90;99.90;;;;;;5039219;28;20385;-45
2024/02/14 00:39:59;;;;;;;11.23;7.32;;;9.00;99.90;;;;;;5038171;28;20425;-41
2024/02/14 00:42:25;;;;;;;9.15;6.43;;;9.00;99.90;;;;;;5046698;28;20025;-44
2024/02/14 00:44:51;;;;;;;16.23;7.43;;;9.00;99.90;;;;;;5041828;28;20028;-41
2024/02/14 00:47:17;;;;;;;9.27;7.03;;;9.00;99.90;;;;;;5049596;28;20071;-41
2024/02/14 00:49:42;;;;;;;10.18;6.97;;;9.10;99.90;;;;;;5032138;28;20033;-42
2024/02/14 00:52:09;;;;;;;12.35;7.97;;;9.10;99.90;;;;;;5033308;28;20533;-41
2024/02/14 00:54:34;;;;;;;13.68;7.53;;;9.10;99.90;;;;;;5033192;28;20052;-45
2024/02/14 00:57:00;;;;;;;12.52;7.43;;;9.10;99.90;;;;;;5037679;28;20025;-61
2024/02/14 00:59:26;;;;;;;12.20;7.28;;;9.10;99.90;;;;;;5032964;28;20478;-45
2024/02/14 01:01:52;;;;;;;11.70;7.55;;;9.20;99.90;;;;;;5032691;28;20032;-44
2024/02/14 01:04:18;;;;;;;15.20;6.85;;;9.20;99.90;;;;;;5040656;28;20040;-39
2024/02/14 01:06:44;;;;;;;15.25;7.75;;;9.20;99.90;;;;;;5032949;28;20036;-42
2024/02/14 01:09:09;;;;;;;10.68;6.97;;;9.20;99.90;;;;;;5035618;28;20044;-39
2024/02/14 01:11:38;;;;;;;11.82;7.00;;;9.20;99.90;;;;;;5043108;28;20037;-41
2024/02/14 01:14:04;;;;;;;9.60;7.03;;;9.20;99.90;;;;;;5032762;28;20092;-38
2024/02/14 01:16:29;;;;;;;11.48;6.55;;;9.30;99.90;;;;;;5032509;28;20018;-44
2024/02/14 01:18:55;;;;;;;10.98;6.20;;;9.30;99.90;;;;;;5037863;28;20030;-44
2024/02/14 01:21:21;;;;;;;12.48;7.88;;;9.30;99.90;;;;;;5032656;28;20025;-42
2024/02/14 01:23:46;;;;;;;13.57;6.90;;;9.30;99.90;;;;;;5045423;28;20056;-41
2024/02/14 01:26:12;;;;;;;11.82;7.30;;;9.30;99.90;;;;;;5036272;28;20040;-43
2024/02/14 01:28:38;;;;;;;12.68;7.47;;;9.30;99.90;;;;;;5033483;28;20029;-43
2024/02/14 01:31:03;;;;;;;10.77;7.32;;;9.40;99.90;;;;;;5050461;28;20044;-42
2024/02/14 01:33:30;;;;;;;10.45;7.35;;;9.40;99.90;;;;;;5040484;28;20048;-42
2024/02/14 01:35:57;;;;;;;11.98;7.63;;;9.40;99.90;;;;;;5041419;28;21638;-75
2024/02/14 01:38:23;;;;;;;13.70;8.07;;;9.50;99.90;;;;;;5052547;28;20017;-41
2024/02/14 01:40:48;;;;;;;14.25;7.65;;;9.50;99.90;;;;;;5050883;28;20498;-57
2024/02/14 01:43:14;;;;;;;11.07;7.85;;;9.50;99.90;;;;;;5052438;28;20130;-41
2024/02/14 01:45:40;;;;;;;14.07;7.93;;;9.50;99.90;;;;;;5038874;28;20021;-46
2024/02/14 01:48:07;;;;;;;16.25;8.10;;;9.50;99.90;;;;;;5032460;28;20025;-42
2024/02/14 01:50:35;;;;;;;13.93;7.70;;;9.50;99.90;;;;;;5032444;28;20487;-41
2024/02/14 01:53:01;;;;;;;18.08;8.52;;;9.50;99.90;;;;;;5032472;28;20026;-41
2024/02/14 01:55:28;;;;;;;12.38;8.13;;;9.50;99.90;;;;;;5041120;28;20029;-42
2024/02/14 01:57:54;;;;;;;18.73;8.10;;;9.50;99.90;;;;;;5051170;28;20021;-45
2024/02/14 02:00:20;;;;;;;14.18;8.48;;;9.50;99.90;;;;;;5051268;28;20017;-41
2024/02/14 02:02:46;;;;;;;13.07;8.30;;;9.60;99.90;;;;;;5036176;28;20100;-43
2024/02/14 02:05:13;;;;;;;10.52;7.00;;;9.60;99.90;;;;;;5040012;28;20117;-47
2024/02/14 02:07:42;;;;;;;13.52;7.53;;;9.70;99.90;;;;;;5045669;28;20033;-41
2024/02/14 02:10:10;;;;;;;14.13;7.53;;;9.70;99.90;;;;;;5055238;28;20028;-39
2024/02/14 02:12:38;;;;;;;17.45;7.20;;;9.70;99.90;;;;;;5054822;28;20041;-41
2024/02/14 02:15:06;;;;;;;10.90;7.07;;;9.70;99.90;;;;;;5047225;28;20026;-53
2024/02/14 02:17:34;;;;;;;11.45;8.10;;;9.70;99.90;;;;;;5035252;28;20559;-53
2024/02/14 02:20:00;;;;;;;12.05;7.15;;;9.70;99.90;;;;;;5036062;28;20473;-48
2024/02/14 02:22:26;;;;;;;13.20;7.10;;;9.70;99.90;;;;;;5036101;28;20032;-52
2024/02/14 02:24:51;;;;;;;12.25;7.88;;;9.80;99.90;;;;;;5039389;28;20501;-38
2024/02/14 02:27:17;;;;;;;16.27;8.10;;;9.80;99.90;;;;;;5035989;28;20018;-43
2024/02/14 02:29:43;;;;;;;14.18;7.80;;;9.80;99.90;;;;;;5036241;28;20034;-41
2024/02/14 02:32:09;;;;;;;11.18;7.53;;;9.70;99.90;;;;;;5038051;28;20057;-42
2024/02/14 02:34:38;;;;;;;11.55;7.78;;;9.70;99.90;;;;;;5036612;28;20355;-59
2024/02/14 02:37:07;;;;;;;12.80;7.93;;;9.80;99.90;;;;;;5034427;28;20024;-41
2024/02/14 02:39:33;;;;;;;14.18;7.80;;;9.80;99.90;;;;;;5037523;28;20059;-42
2024/02/14 02:41:59;;;;;;;13.27;7.82;;;9.80;99.90;;;;;;5054768;28;20021;-40
2024/02/14 02:44:25;;;;;;;12.57;8.68;;;9.80;99.90;;;;;;5043004;28;20482;-40
2024/02/14 02:46:51;;;;;;;10.95;7.15;;;9.80;99.90;;;;;;5043997;28;20037;-40
2024/02/14 02:49:16;;;;;;;9.25;6.80;;;9.80;99.90;;;;;;5035604;28;20456;-40
2024/02/14 02:51:42;;;;;;;11.10;6.97;;;9.90;99.90;;;;;;5035207;28;20029;-39
2024/02/14 02:54:08;;;;;;;10.23;7.47;;;9.90;99.90;;;;;;5035628;28;20029;-40
2024/02/14 02:56:34;;;;;;;10.60;7.32;;;9.90;99.90;;;;;;5048329;28;20052;-40
2024/02/14 02:59:03;;;;;;;13.32;7.65;;;9.90;99.90;;;;;;5041751;28;20029;-42
2024/02/14 03:01:34;;;;;;;8.65;6.22;;;9.90;99.90;;;;;;5035634;28;20474;-39
2024/02/14 03:04:00;;;;;;;10.88;7.28;;;9.90;99.90;;;;;;5037090;28;20030;-36
2024/02/14 03:06:26;;;;;;;12.38;7.32;;;9.90;99.90;;;;;;5052853;28;20182;-40
2024/02/14 03:08:53;;;;;;;10.85;7.07;;;9.90;99.90;;;;;;5042612;28;20402;-40
2024/02/14 03:11:19;;;;;;;13.00;7.13;;;9.90;99.90;;;;;;5053010;28;20045;-39
2024/02/14 03:13:48;;;;;;;11.55;7.53;;;9.90;99.90;;;;;;5053996;28;20477;-38
2024/02/14 03:16:14;;;;;;;14.48;7.38;;;9.90;99.90;;;;;;5047407;28;20403;-53
2024/02/14 03:18:40;;;;;;;13.00;7.63;;;10.00;99.90;;;;;;5054434;28;20056;-52
2024/02/14 03:21:06;;;;;;;15.55;7.38;;;10.00;99.90;;;;;;5053815;28;20418;-52
2024/02/14 03:23:32;;;;;;;15.18;7.30;;;10.00;99.90;;;;;;5041041;28;20068;-52
2024/02/14 03:25:58;;;;;;;14.45;7.57;;;10.00;99.90;;;;;;5038977;28;20358;-53
2024/02/14 03:28:24;;;;;;;16.70;7.43;;;10.10;99.90;;;;;;5034712;28;20021;-51
2024/02/14 03:30:50;;;;;;;17.90;7.35;;;10.10;99.90;;;;;;5034820;28;20421;-54
2024/02/14 03:33:16;;;;;;;17.60;7.85;;;10.10;99.90;;;;;;5034653;28;20062;-52
2024/02/14 03:35:42;;;;;;;14.82;7.45;;;10.10;99.90;;;;;;5035749;28;20363;-59
2024/02/14 03:38:11;;;;;;;14.85;7.47;;;10.20;99.90;;;;;;5054458;28;20428;-52
2024/02/14 03:40:38;;;;;;;14.80;7.88;;;10.20;99.90;;;;;;5043518;28;20367;-51
2024/02/14 03:43:04;;;;;;;15.50;7.78;;;10.20;99.90;;;;;;5044826;28;20104;-40
2024/02/14 03:45:30;;;;;;;17.23;7.53;;;10.10;99.90;;;;;;5034933;28;20437;-39
2024/02/14 03:47:56;;;;;;;11.60;7.45;;;10.10;99.90;;;;;;5054201;28;20032;-53
2024/02/14 03:50:22;;;;;;;15.15;8.18;;;10.20;99.90;;;;;;5052603;28;20492;-54
2024/02/14 03:52:48;;;;;;;17.42;9.07;;;10.20;99.90;;;;;;5054198;28;20025;-49
2024/02/14 03:55:17;;;;;;;21.05;7.57;;;10.20;99.90;;;;;;5052605;28;20024;-52
2024/02/14 03:57:45;;;;;;;19.50;8.00;;;10.10;99.90;;;;;;5054334;28;20029;-54
2024/02/14 04:00:11;;;;;;;;;;;10.10;99.90;;;;;;5036221;28;20022;-52
2024/02/14 04:02:36;;;;;;;16.85;7.60;;;10.20;99.90;;;;;;5034163;28;19909;-54
2024/02/14 04:05:02;;;;;;;19.38;6.70;;;10.20;99.90;;;;;;5034499;28;20033;-52
2024/02/14 04:07:29;;;;;;;17.83;7.80;;;10.20;99.90;;;;;;5039775;28;20534;-53
2024/02/14 04:09:55;;;;;;;15.85;7.03;;;10.20;99.90;;;;;;5052426;28;20489;-53
2024/02/14 04:12:21;;;;;;;13.80;7.03;;;10.30;99.90;;;;;;5035072;28;20056;-52
2024/02/14 04:14:46;;;;;;;17.52;7.18;;;10.30;99.90;;;;;;5034472;28;20124;-54
2024/02/14 04:17:13;;;;;;;10.50;7.13;;;10.30;99.90;;;;;;5033916;28;20033;-53
2024/02/14 04:19:39;;;;;;;15.88;7.00;;;10.30;99.90;;;;;;5037123;28;20469;-52
2024/02/14 04:22:05;;;;;;;27.60;8.10;;;10.30;99.90;;;;;;5052053;28;20055;-41
2024/02/14 04:24:34;;;;;;;14.70;6.50;;;10.40;99.90;;;;;;5050590;28;20082;-40
2024/02/14 04:27:02;;;;;;;18.23;7.80;;;10.30;99.90;;;;;;5053619;28;20116;-44
2024/02/14 04:29:30;;;;;;;11.80;7.03;;;10.30;99.90;;;;;;5050931;28;20029;-41
2024/02/14 04:31:56;;;;;;;17.05;8.02;;;10.30;99.90;;;;;;5034101;28;20034;-40
2024/02/14 04:34:21;;;;;;;19.48;7.10;;;10.30;99.90;;;;;;5033616;28;20086;-65
2024/02/14 04:36:47;;;;;;;18.13;7.03;;;10.40;99.90;;;;;;5032275;28;20116;-48
2024/02/14 04:39:13;;;;;;;15.63;7.13;;;10.40;99.90;;;;;;5033378;28;20018;-41
2024/02/14 04:41:38;;;;;;;18.60;6.93;;;10.40;99.90;;;;;;5033483;28;20478;-41
2024/02/14 04:44:07;;;;;;;21.40;6.93;;;10.50;99.90;;;;;;5033500;28;20033;-41
2024/02/14 04:46:34;;;;;;;11.25;7.15;;;10.50;99.90;;;;;;5033208;28;20400;-40
2024/02/14 04:49:02;;;;;;;17.98;8.00;;;10.50;99.90;;;;;;5033245;28;20145;-59
2024/02/14 04:51:31;;;;;;;;;;;10.50;99.90;;;;;;5033841;28;20033;-40
2024/02/14 04:54:01;;;;;;;17.42;7.22;;;10.50;99.90;;;;;;5033298;28;19909;-44
2024/02/14 04:56:27;;;;;;;17.88;7.50;;;10.50;99.90;;;;;;5033430;28;20501;-39
2024/02/14 04:58:56;;;;;;;13.48;6.93;;;10.60;99.90;;;;;;5033099;28;20497;-40
2024/02/14 05:01:22;;;;;;;15.35;7.60;;;10.60;99.90;;;;;;5040964;28;20063;-39
2024/02/14 05:03:49;;;;;;;12.27;7.00;;;10.60;99.90;;;;;;5053305;28;20032;-39
2024/02/14 05:06:15;;;;;;;19.13;7.68;;;10.60;99.90;;;;;;5044268;28;20492;-54
2024/02/14 05:08:41;;;;;;;15.88;7.93;;;10.60;99.90;;;;;;5031861;28;20025;-51
2024/02/14 05:11:06;;;;;;;15.73;6.60;;;10.60;99.90;;;;;;5049062;28;20033;-53
2024/02/14 05:13:32;;;;;;;18.40;8.10;;;10.60;99.90;;;;;;5052752;28;20415;-51
2024/02/14 05:15:58;;;;;;;19.08;6.90;;;10.60;99.90;;;;;;5035804;28;20044;-40
2024/02/14 05:18:23;;;;;;;21.23;7.35;;;10.60;99.90;;;;;;5032944;28;20390;-39
2024/02/14 05:20:49;;;;;;;17.23;6.70;;;10.60;99.90;;;;;;5034012;28;20457;-37
2024/02/14 05:23:17;;;;;;;14.57;6.90;;;10.60;99.90;;;;;;5048892;28;20032;-48
2024/02/14 05:25:43;;;;;;;14.13;6.63;;;10.70;99.90;;;;;;5042641;28;20036;-40
2024/02/14 05:28:13;;;;;;;17.17;6.63;;;10.60;99.90;;;;;;5052826;28;20033;-43
2024/02/14 05:30:39;;;;;;;11.18;6.07;;;10.60;99.90;;;;;;5039413;28;20017;-39
2024/02/14 05:33:05;;;;;;;14.00;7.68;;;10.60;99.90;;;;;;5032566;28;20498;-38
2024/02/14 05:35:31;;;;;;;13.23;6.90;;;10.70;99.90;;;;;;5032305;28;20064;-71
2024/02/14 05:37:56;;;;;;;14.55;6.40;;;10.70;99.90;;;;;;5042705;28;20025;-40
2024/02/14 05:40:22;;;;;;;12.43;6.65;;;10.70;99.90;;;;;;5036614;28;20454;-42
2024/02/14 05:42:47;;;;;;;10.07;6.00;;;10.70;99.90;;;;;;5032911;28;20371;-39
2024/02/14 05:45:13;;;;;;;12.38;5.80;;;10.70;99.90;;;;;;5051675;28;20029;-40
2024/02/14 05:47:39;;;;;;;17.00;6.88;;;10.70;99.90;;;;;;5034067;28;20040;-42
2024/02/14 05:50:05;;;;;;;11.75;6.30;;;10.70;99.90;;;;;;5032513;28;20021;-40
2024/02/14 05:52:31;;;;;;;12.77;6.30;;;10.70;99.90;;;;;;5032600;28;20026;-38
2024/02/14 05:54:57;;;;;;;14.68;7.25;;;10.70;99.90;;;;;;5033156;28;20048;-41
2024/02/14 05:57:23;;;;;;;13.80;7.25;;;10.70;99.90;;;;;;5052474;28;20021;-40
2024/02/14 05:59:48;;;;;;;11.07;6.85;;;10.60;99.90;;;;;;5043537;28;20032;-41
2024/02/14 06:02:14;;;;;;;11.43;7.10;;;10.60;99.90;;;;;;5052445;28;20025;-43
2024/02/14 06:04:41;;;;;;;11.10;7.15;;;10.60;99.90;;;;;;5051630;28;20060;-39
2024/02/14 06:07:09;;;;;;;13.33;7.00;;;10.70;99.90;;;;;;5040376;28;20041;-40
2024/02/14 06:09:35;;;;;;;11.70;6.70;;;10.70;99.90;;;;;;5047332;28;20750;-55
2024/02/14 06:12:01;;;;;;;9.95;6.43;;;10.70;99.90;;;;;;5036540;28;20120;-52
2024/02/14 06:14:28;;;;;;;12.65;5.72;;;10.70;99.90;;;;;;5031802;28;20125;-54
2024/02/14 06:16:54;;;;;;;12.57;6.78;;;10.70;99.90;;;;;;5032613;28;20401;-54
2024/02/14 06:19:19;;;;;;;9.75;6.03;;;10.70;99.90;;;;;;5032294;28;20083;-62
2024/02/14 06:21:45;;;;;;;11.27;6.70;;;10.80;99.90;;;;;;5032338;28;20041;-54
2024/02/14 06:24:13;;;;;;;15.32;6.85;;;10.80;99.90;;;;;;5032200;28;20375;-53
2024/02/14 06:26:38;;;;;;;11.25;5.85;;;10.70;99.90;;;;;;5033019;28;20025;-65
2024/02/14 06:29:04;;;;;;;17.35;7.38;;;10.70;99.90;;;;;;5042786;28;20029;-47
2024/02/14 06:31:30;;;;;;;11.63;6.97;;;10.80;99.90;;;;;;5043436;28;20025;-41
2024/02/14 06:33:55;;;;;;;15.65;7.30;;;10.70;99.90;;;;;;5032116;28;20482;-40
2024/02/14 06:36:21;;;;;;;22.00;8.15;;;10.70;99.90;;;;;;5032172;28;20100;-41
2024/02/14 06:38:47;;;;;;;11.75;6.38;;;10.80;99.90;;;;;;5032148;28;20026;-41
2024/02/14 06:41:13;;;;;;;15.95;8.90;;;10.70;99.90;;;;;;5032802;28;20033;-41
2024/02/14 06:43:39;;;;;;;14.52;7.20;;;10.70;99.90;;;;;;5033073;28;20385;-45
2024/02/14 06:46:05;;;;;;;14.77;8.02;;;10.70;99.90;;;;;;5037765;28;20021;-41
2024/02/14 06:48:31;;;;;;;15.73;7.68;;;10.70;99.90;;;;;;5044391;28;20025;-40
2024/02/14 06:50:57;;;;;;;13.65;7.30;;;10.80;99.90;;;;;;5049138;28;20158;-37
2024/02/14 06:53:23;;;;;;;13.60;6.85;;;10.90;99.90;;;;;;5055489;28;20065;-39
2024/02/14 06:55:48;;;;;;;13.55;7.55;;;10.90;99.90;;;;;;5036911;28;20030;-39
2024/02/14 06:58:14;;;;;;;15.57;7.57;;;10.80;99.90;;;;;;5049806;28;20385;-39
2024/02/14 07:00:39;;;;;;;21.48;7.97;;;10.80;99.90;;;;;;5035298;28;20028;-65
2024/02/14 07:03:05;;;;;;;20.20;9.23;;;10.90;99.90;;;;;;5040133;28;20020;-38
2024/02/14 07:05:31;;;;;;;18.33;8.75;;;10.90;99.90;;;;;;5050278;28;20103;-39
2024/02/14 07:07:56;;;;;;;22.15;9.23;;;10.90;99.90;;;;;;5054302;28;20478;-38
2024/02/14 07:10:22;;;;;;;19.38;8.85;;;10.90;99.90;;;;;;5039811;28;20035;-44
2024/02/14 07:12:48;;;;;;;14.77;8.57;;;10.90;99.90;;;;;;5034262;28;20041;-41
2024/02/14 07:15:13;;;;;;;20.67;8.57;;;10.90;99.90;;;;;;5035138;28;20032;-39
2024/02/14 07:17:39;;;;;;;22.65;10.00;;;10.90;99.90;;;;;;5039767;28;20022;-40
2024/02/14 07:20:08;;;;;;;16.67;7.97;;;11.00;99.90;;;;;;5034727;28;20018;-37
2024/02/14 07:22:35;;;;;;;25.80;8.85;;;11.00;99.90;;;;;;5017716;28;20488;-38
2024/02/14 07:25:00;;;;;;;18.73;8.18;;;11.00;99.90;;;;;;5035061;28;20025;-38
2024/02/14 07:27:26;;;;;;;16.00;8.40;;;11.00;99.90;;;;;;5035617;28;20029;-47
2024/02/14 07:29:52;;;;;;;20.45;9.15;;;11.00;99.90;;;;;;5048596;28;20034;-39
2024/02/14 07:32:18;;;;;;;16.75;8.55;;;10.90;99.90;;;;;;5052520;28;20040;-39
2024/02/14 07:34:44;;;;;;;15.32;8.68;;;10.90;99.90;;;;;;5054836;28;20032;-38
2024/02/14 07:37:09;;;;;;;18.30;8.55;;;11.00;99.90;;;;;;5044638;28;20382;-40
2024/02/14 07:39:35;;;;;;;21.85;9.50;;;11.00;99.90;;;;;;5034867;28;20034;-41
2024/02/14 07:42:02;;;;;;;25.25;9.43;;;11.00;99.90;;;;;;5037530;28;20025;-74
2024/02/14 07:44:28;;;;;;;18.63;9.07;;;11.10;99.90;;;;;;5054254;28;20036;-38
2024/02/14 07:46:53;;;;;;;15.48;9.35;;;11.10;99.90;;;;;;5054229;28;20025;-39
2024/02/14 07:49:19;;;;;;;17.08;8.40;;;11.00;99.90;;;;;;5050632;28;20048;-41
2024/02/14 07:51:45;;;;;;;14.57;8.85;;;11.00;99.90;;;;;;5034436;28;20091;-38
2024/02/14 07:54:11;;;;;;;19.33;8.82;;;11.00;99.90;;;;;;5034407;28;20029;-39
2024/02/14 07:56:36;;;;;;;16.42;7.88;;;11.00;99.90;;;;;;5034261;28;20025;-39
2024/02/14 07:59:02;;;;;;;13.73;7.53;;;11.10;99.90;;;;;;5033993;28;20033;-41
2024/02/14 08:01:30;;;;;;;15.73;8.60;;;11.10;99.90;;;;;;5036645;28;20032;-39
2024/02/14 08:03:55;;;;;;;14.45;7.32;;;11.10;99.90;;;;;;5038862;28;20036;-37
2024/02/14 08:06:21;;;;;;;14.45;7.68;;;11.10;99.90;;;;;;5034354;28;20030;-38
2024/02/14 08:08:49;;;;;;;12.75;7.20;;;11.10;99.90;;;;;;5033974;28;20037;-37
2024/02/14 08:11:14;;;;;;;13.23;7.25;;;11.10;99.90;;;;;;5034228;28;20520;-39
2024/02/14 08:13:40;;;;;;;16.92;7.50;;;11.10;99.90;;;;;;5036675;28;20073;-40
2024/02/14 08:16:06;;;;;;;10.80;7.15;;;11.10;99.90;;;;;;5033874;28;20108;-38
2024/02/14 08:18:32;;;;;;;16.25;7.25;;;11.20;99.90;;;;;;5044746;28;20524;-37
2024/02/14 08:20:58;;;;;;;14.48;7.88;;;11.20;99.90;;;;;;5053904;28;20029;-37
2024/02/14 08:23:24;;;;;;;22.40;7.57;;;11.20;99.90;;;;;;5053698;28;20166;-38
2024/02/14 08:25:49;;;;;;;13.18;8.40;;;11.20;99.90;;;;;;5038621;28;20086;-39
2024/02/14 08:28:17;;;;;;;12.13;7.20;;;11.20;99.90;;;;;;5046708;28;20017;-37
2024/02/14 08:30:44;;;;;;;11.30;7.93;;;11.30;99.90;;;;;;5051201;28;20029;-36
2024/02/14 08:33:10;;;;;;;12.18;7.25;;;11.30;99.90;;;;;;5049919;28;20477;-39
2024/02/14 08:35:36;;;;;;;11.25;6.97;;;11.30;99.90;;;;;;5053806;28;20040;-37
2024/02/14 08:38:02;;;;;;;14.85;6.50;;;11.30;99.90;;;;;;5053506;28;20370;-36
2024/02/14 08:40:28;;;;;;;15.38;6.90;;;11.30;99.90;;;;;;5053435;28;20032;-36
2024/02/14 08:42:54;;;;;;;14.32;7.03;;;11.30;99.90;;;;;;5038390;28;20048;-37
2024/02/14 08:45:20;;;;;;;14.60;7.15;;;11.30;99.90;;;;;;5032300;28;20033;-36
2024/02/14 08:47:45;;;;;;;9.55;6.18;;;11.30;99.90;;;;;;5039685;28;20021;-36
2024/02/14 08:50:11;;;;;;;13.18;7.30;;;11.30;99.90;;;;;;5044419;28;20480;-38
2024/02/14 08:52:40;;;;;;;11.93;6.00;;;11.30;99.90;;;;;;5033290;28;20391;-38
2024/02/14 08:55:10;;;;;;;12.43;6.00;;;11.30;99.90;;;;;;5033265;28;20059;-36
2024/02/14 08:57:36;;;;;;;15.80;6.53;;;11.30;99.90;;;;;;5037991;28;20426;-37
2024/02/14 09:00:04;;;;;;;10.85;6.30;;;11.30;99.90;;;;;;5033039;28;20037;-36
2024/02/14 09:02:29;;;;;;;11.50;5.85;;;11.30;99.90;;;;;;5034087;28;20067;-37
2024/02/14 09:04:55;;;;;;;11.43;6.80;;;11.30;99.90;;;;;;5042246;28;20112;-36
2024/02/14 09:07:20;;;;;;;11.45;6.65;;;11.30;99.90;;;;;;5033072;28;20482;-36
2024/02/14 09:09:46;;;;;;;9.15;5.85;;;11.40;99.90;;;;;;5032151;28;20112;-36
2024/02/14 09:12:12;;;;;;;12.48;7.10;;;11.40;99.90;;;;;;5042612;28;20067;-41
2024/02/14 09:14:37;;;;;;;12.88;6.90;;;11.40;99.90;;;;;;5052614;28;20084;-37
2024/02/14 09:17:03;;;;;;;10.80;6.47;;;11.40;99.90;;;;;;5052804;28;20496;-38
2024/02/14 09:19:29;;;;;;;11.60;6.13;;;11.50;99.90;;;;;;5031660;28;20021;-37
2024/02/14 09:21:55;;;;;;;11.65;7.53;;;11.40;99.90;;;;;;5033779;28;20053;-36
2024/02/14 09:24:21;;;;;;;13.75;7.20;;;11.40;99.90;;;;;;5033315;28;20134;-35
2024/02/14 09:26:46;;;;;;;8.30;6.38;;;11.40;99.90;;;;;;5039625;28;20115;-39
2024/02/14 09:29:12;;;;;;;15.55;7.55;;;11.40;99.90;;;;;;5050964;28;20100;-36
2024/02/14 09:31:38;;;;;;;13.02;7.03;;;11.40;99.90;;;;;;5043015;28;20029;-36
2024/02/14 09:34:03;;;;;;;13.20;6.85;;;11.40;99.90;;;;;;5052536;28;20467;-37
2024/02/14 09:36:30;;;;;;;11.20;6.65;;;11.40;99.90;;;;;;5046338;28;20024;-39
2024/02/14 09:38:55;;;;;;;19.65;7.15;;;11.50;99.90;;;;;;5033209;28;20029;-36
2024/02/14 09:41:43;;;;;;;14.65;7.38;;;11.50;99.90;;;;;;5033151;28;20037;-36
2024/02/14 09:44:09;;;;;;;16.65;8.82;;;11.60;99.90;;;;;;5032685;28;20485;-37
2024/02/14 09:46:38;;;;;;;20.02;8.48;;;11.50;99.90;;;;;;5032546;28;20029;-44
2024/02/14 09:49:06;;;;;;;16.63;8.05;;;11.50;99.90;;;;;;5032489;28;20394;-37
2024/02/14 09:51:31;;;;;;;13.02;8.73;;;11.60;99.90;;;;;;5033783;28;20493;-37
2024/02/14 09:53:59;;;;;;;16.52;8.90;;;11.60;99.90;;;;;;5042415;28;20030;-36
2024/02/14 09:56:26;;;;;;;18.88;8.10;;;11.70;99.90;;;;;;5033031;28;20029;-37
2024/02/14 09:58:57;;;;;;;14.32;8.00;;;11.70;99.90;;;;;;5032962;28;20018;-36
2024/02/14 10:01:26;;;;;;;19.00;7.90;;;11.80;99.90;;;;;;5032199;28;20026;-61
2024/02/14 10:03:55;;;;;;;13.63;7.75;;;11.80;99.90;;;;;;5034370;28;20044;-36
2024/02/14 10:06:22;;;;;;;11.52;7.55;;;11.70;99.90;;;;;;5040057;28;20502;-37
2024/02/14 10:08:51;;;;;;;11.23;6.93;;;11.70;99.90;;;;;;5031965;28;20040;-37
2024/02/14 10:11:23;;;;;;;15.70;6.47;;;11.70;99.90;;;;;;5033463;28;20417;-38
2024/02/14 10:13:51;;;;;;;14.13;6.88;;;11.70;99.90;;;;;;5050897;28;20037;-38
2024/02/14 10:16:18;;;;;;;10.30;6.95;;;11.70;99.90;;;;;;5049889;28;20497;-36
2024/02/14 10:18:47;;;;;;;10.90;7.90;;;11.80;99.90;;;;;;5031823;28;20029;-37
2024/02/14 10:21:19;;;;;;;13.68;7.03;;;11.80;99.90;;;;;;5036413;28;20481;-51
2024/02/14 10:23:46;;;;;;;9.88;7.43;;;11.90;99.90;;;;;;5044738;28;20104;-55
2024/02/14 10:26:13;;;;;;;15.07;7.43;;;11.90;99.90;;;;;;5053672;28;20021;-37
2024/02/14 10:28:42;;;;;;;23.98;8.10;;;11.90;99.90;;;;;;5038371;28;20478;-37
2024/02/14 10:31:11;;;;;;;15.20;7.05;;;11.90;99.90;;;;;;5046160;28;20022;-36
2024/02/14 10:33:37;;;;;;;17.70;6.80;;;12.00;99.90;;;;;;5042989;28;20033;-36
2024/02/14 10:36:03;;;;;;;12.65;6.65;;;12.10;99.90;;;;;;5043185;28;20040;-39
2024/02/14 10:38:35;;;;;;;11.70;6.68;;;12.10;99.90;;;;;;5052605;28;20025;-37
2024/02/14 10:41:02;;;;;;;13.95;7.20;;;12.10;99.90;;;;;;5044204;28;20037;-37
2024/02/14 10:43:28;;;;;;;9.53;7.23;;;12.20;99.90;;;;;;5041791;28;20021;-37
2024/02/14 10:46:00;;;;;;;11.02;6.78;;;12.20;99.90;;;;;;5052931;28;20116;-37
2024/02/14 10:48:29;;;;;;;11.98;6.43;;;12.20;99.90;;;;;;5046423;28;20545;-37
2024/02/14 10:51:00;;;;;;;11.00;6.93;;;12.30;99.90;;;;;;5045317;28;20021;-37
2024/02/14 10:53:29;;;;;;;11.77;7.03;;;12.30;99.90;;;;;;5053562;28;20033;-36
2024/02/14 10:55:57;;;;;;;11.70;6.13;;;12.30;99.90;;;;;;5054586;28;20100;-37
2024/02/14 10:58:25;;;;;;;8.65;5.28;;;12.30;99.90;;;;;;5055398;28;20555;-38
2024/02/14 11:00:51;;;;;;;7.97;5.97;;;12.30;99.90;;;;;;5055430;28;20111;-37
2024/02/14 11:03:17;;;;;;;9.10;4.93;;;12.30;99.90;;;;;;5042865;28;20056;-41
2024/02/14 11:05:48;;;;;;;7.85;5.47;;;12.30;99.90;;;;;;5055582;28;20490;-37
2024/02/14 11:08:21;;;;;;;7.65;4.97;;;12.20;99.90;;;;;;5055447;28;20097;-52
2024/02/14 11:10:58;;;;;;;7.13;4.03;;;12.20;99.90;;;;;;5050594;28;20356;-52
2024/02/14 11:13:28;;;;;;;4.57;4.13;;;12.20;99.90;;;;;;5035173;28;20072;-50
2024/02/14 11:15:56;;;;;;;8.48;4.78;;;12.20;99.90;;;;;;5035055;28;20080;-50
2024/02/14 11:18:36;;;;;;;5.80;4.57;;;12.30;99.90;;;;;;5035059;28;20025;-53
2024/02/14 11:21:05;;;;;;;6.90;5.32;;;12.20;99.90;;;;;;5036846;28;20025;-53
2024/02/14 11:23:31;;;;;;;11.50;5.65;;;12.20;99.90;;;;;;5037755;28;20033;-52
2024/02/14 11:26:05;;;;;;;6.90;5.10;;;12.20;99.90;;;;;;5053061;28;20505;-50
2024/02/14 11:28:30;;;;;;;12.13;5.35;;;12.30;99.90;;;;;;5053585;28;20033;-52
2024/02/14 11:31:03;;;;;;;9.05;5.03;;;12.20;99.90;;;;;;5046153;28;20423;-51
2024/02/14 11:33:29;;;;;;;9.25;5.10;;;12.30;99.90;;;;;;5034174;28;20029;-50
2024/02/14 11:35:56;;;;;;;10.57;5.63;;;12.30;99.90;;;;;;5034732;28;20029;-50
2024/02/14 11:38:25;;;;;;;9.45;5.35;;;12.30;99.90;;;;;;5035158;28;20486;-49
2024/02/14 11:40:56;;;;;;;8.05;5.18;;;12.30;99.90;;;;;;5035628;28;20029;-51
2024/02/14 11:43:23;;;;;;;16.75;6.18;;;12.30;99.90;;;;;;5034766;28;20524;-53
2024/02/14 11:45:49;;;;;;;15.05;5.93;;;12.40;99.90;;;;;;5034804;28;20041;-50
2024/02/14 11:48:16;;;;;;;9.05;5.63;;;12.40;99.90;;;;;;5048174;28;20366;-53
2024/02/14 11:50:44;;;;;;;11.27;6.93;;;12.40;99.90;;;;;;5041028;28;20041;-52
2024/02/14 11:53:11;;;;;;;10.45;5.82;;;12.40;99.90;;;;;;5041851;28;20763;-48
2024/02/14 11:55:41;;;;;;;8.48;5.60;;;12.40;99.90;;;;;;5040653;28;20421;-50
2024/02/14 11:58:11;;;;;;;8.85;5.97;;;12.40;99.90;;;;;;5034103;28;20572;-51
2024/02/14 12:00:40;;;;;;;8.82;5.85;;;12.40;99.90;;;;;;5034223;28;20076;-51
2024/02/14 12:03:07;;;;;;;11.88;6.10;;;12.50;99.90;;;;;;5036303;28;20057;-50
2024/02/14 12:05:34;;;;;;;11.03;6.90;;;12.50;99.90;;;;;;5043389;28;20021;-63
2024/02/14 12:08:00;;;;;;;11.27;6.67;;;12.40;99.90;;;;;;5036008;28;20025;-52
2024/02/14 12:10:26;;;;;;;8.70;5.90;;;12.50;99.90;;;;;;5048818;28;20039;-53
2024/02/14 12:12:52;;;;;;;9.98;6.13;;;12.40;99.90;;;;;;5049182;28;20392;-54
2024/02/14 12:15:18;;;;;;;7.10;5.60;;;12.40;99.90;;;;;;5053839;28;20132;-53
2024/02/14 12:17:47;;;;;;;10.73;6.10;;;12.40;99.90;;;;;;5049848;28;20013;-35
2024/02/14 12:20:13;;;;;;;8.63;5.90;;;12.30;99.90;;;;;;5033866;28;20112;-37
2024/02/14 12:22:40;;;;;;;8.93;5.55;;;12.30;99.90;;;;;;5034080;28;20056;-41
2024/02/14 12:25:11;;;;;;;8.45;5.68;;;12.30;99.90;;;;;;5051372;28;20036;-40
2024/02/14 12:27:38;;;;;;;10.90;5.53;;;12.30;99.90;;;;;;5053453;28;20028;-38
2024/02/14 12:30:07;;;;;;;9.60;5.88;;;12.20;99.90;;;;;;5036264;28;20029;-40
2024/02/14 12:32:33;;;;;;;7.80;5.25;;;12.20;99.90;;;;;;5035535;28;20025;-37
2024/02/14 12:34:59;;;;;;;8.13;5.18;;;12.20;99.90;;;;;;5033811;28;20022;-38
2024/02/14 12:37:25;;;;;;;8.98;5.15;;;12.20;99.90;;;;;;5035207;28;20020;-37